Terminal Aerodrome Forecast
Issued by NWS

Home | Current Version | Previous Version | Graphics & Text | Print | Product List | Glossary On
Versions: 1 2 3 4 5 6 7 8 9 10 11 12 13 14 15 16 17 18
000
FTUS43 KGRB 172000 AAA
TAFATW
TAF AMD
KATW 172023Z 1720/1818 32013G24KT P6SM VCSH SCT015 OVC025
      TEMPO 1721/1723 5SM -RA BR BKN012
     FM180100 32013G18KT P6SM VCSH SCT012 BKN025
     FM181200 35013KT P6SM SCT025 BKN050
     FM181500 35013G19KT P6SM SKC=

USA.gov is the U.S. government's official web portal to all federal, state and local government web resources and services.